Terminal Aerodrome Forecast
Issued by NWS Goodland, KS

Home | Current Version | Previous Version | Text Only | Print | Product List | Glossary On
Versions: 1 2 3 4 5 6 7 8 9 10 11 12 13 14
000
FTUS43 KGLD 231720
TAFGLD
TAF
KGLD 231720Z 2318/2418 34012G18KT P6SM FEW250
     FM240000 01011KT P6SM FEW180 SCT250
     FM241100 35008KT P6SM VCSH FEW050 SCT110 BKN150
     FM241400 02014G21KT P6SM -SHRA SCT050 BKN100
      TEMPO 2414/2418 -TSRA BKN050CB=

USA.gov is the U.S. government's official web portal to all federal, state and local government web resources and services.